Ana Sayfa
METAR-TAF:

METAR-TAF

Havaalanları :

İstanköy, Yunanistan

Enlem: 36-47N, Boylam: 027-04E, yükseklik: 129 m

Güncel hava durumu gözlemi

Rapor saat 21:50 UTC de 57 dakika önce yapıldı.
Sıcaklık 10°C
Nem 66%
Basınç 1020 hPa
Görüş mesafesi 10 km veya daha fazla
2500 ft yükseklikte az bulutlu

METAR: LGKO 202150Z /////KT 9999 FEW025 10/04 Q1020

Saat: 01:47 (22:47 UTC)

Tahmin

Rapor saat 17:00 UTC de 5 saat ve 47 dakika önce yapıldı.
Ayın 20'si saat 18 UTC'den ayın 21'si saat 18 UTC'ye kadar geçerli Tahmin
Rüzgar kuzeydan 17 kt ve 27 kt'a kadar ani rüzgarlar
Görüş mesafesi 10 km veya daha fazla
2000 ft yükseklikte az bulutlu

TAF: LGKO 201700Z 2018/2118 35017G27KT 9999 FEW020

4.000'den fazla havaalanı için hava durumu gözlemleri ve tahminleri (METAR ve TAF raporları).

Kullanılabilir istasyonlar harita üzerinde sarı ve kırmızı noktalarla gösterilir.

İstasyonun adını görmek için fareyi noktanın üzerinde gezdirin.

Sonrasında hava gözlem ve tahminlerini görmek için tıklayın.

Haritayı değiştirmek için: yaklaştırmak için siyah artı işaretli yeşil düğmeye ve uzaklaştırmak için de eksi işaretli düğmeye hızla tıklayın; bitişik haritalar için yeşil okları kullanın.


METAR-TAF: